Time;durP1;ratioP1;P1;durP2;ratioP2;P2;SDS_P1;SDS_P2;PMS_P1;PMS_P2;Temp;Humidity;BMP_temperature;BMP_pressure;BME280_temperature;BME280_humidity;BME280_pressure;Samples;Min_cycle;Max_cycle;Signal;HPM_P1;HPM_P2
2021/11/24 00:01:15;;;;;;;3.03;1.85;;;22.00;92.80;;;;;;5069333;28;20050;-51
2021/11/24 00:03:42;;;;;;;2.03;1.23;;;22.00;92.80;;;;;;5068132;28;20497;-54
2021/11/24 00:06:09;;;;;;;3.45;1.67;;;22.00;92.90;;;;;;5072177;28;20039;-62
2021/11/24 00:08:37;;;;;;;17.65;14.00;;;22.00;93.00;;;;;;5071319;28;20112;-62
2021/11/24 00:11:04;;;;;;;7.80;5.97;;;22.10;93.40;;;;;;5071710;28;20534;-63
2021/11/24 00:13:32;;;;;;;6.63;3.85;;;22.10;93.20;;;;;;5068464;28;20024;-54
2021/11/24 00:15:59;;;;;;;16.15;12.32;;;22.20;93.20;;;;;;5071547;28;20077;-59
2021/11/24 00:18:27;;;;;;;10.32;9.02;;;22.20;93.70;;;;;;5071711;28;20031;-67
2021/11/24 00:20:54;;;;;;;17.15;9.38;;;22.20;93.40;;;;;;5071657;28;20383;-60
2021/11/24 00:23:21;;;;;;;21.88;16.08;;;22.30;93.60;;;;;;5068226;28;20075;-61
2021/11/24 00:25:49;;;;;;;20.83;15.40;;;22.40;93.60;;;;;;5070664;28;20021;-62
2021/11/24 00:28:16;;;;;;;17.52;14.73;;;22.40;93.60;;;;;;5070428;28;20028;-60
2021/11/24 00:30:46;;;;;;;15.65;9.60;;;22.50;93.30;;;;;;5071328;28;20048;-64
2021/11/24 00:33:13;;;;;;;19.30;9.48;;;22.50;93.90;;;;;;5067817;28;20028;-58
2021/11/24 00:35:41;;;;;;;18.42;10.15;;;22.50;94.10;;;;;;5071033;28;20077;-60
2021/11/24 00:38:09;;;;;;;20.55;12.23;;;22.50;94.00;;;;;;5069712;28;20028;-60
2021/11/24 00:40:37;;;;;;;15.10;9.43;;;22.60;93.60;;;;;;5071754;28;20032;-58
2021/11/24 00:43:05;;;;;;;11.07;8.60;;;22.50;93.70;;;;;;5068898;28;20395;-60
2021/11/24 00:45:32;;;;;;;12.45;8.18;;;22.50;93.90;;;;;;5070774;28;20072;-55
2021/11/24 00:48:00;;;;;;;15.93;8.63;;;22.50;93.80;;;;;;5067486;28;20029;-53
2021/11/24 00:50:27;;;;;;;15.38;8.23;;;22.50;93.90;;;;;;5069141;28;20529;-54
2021/11/24 00:52:55;;;;;;;18.58;9.20;;;22.50;93.90;;;;;;5071872;28;20052;-47
2021/11/24 00:55:23;;;;;;;10.63;8.80;;;22.60;93.80;;;;;;5068493;28;20031;-55
2021/11/24 00:57:50;;;;;;;18.55;11.05;;;22.60;93.60;;;;;;5071667;28;20036;-49
2021/11/24 01:00:18;;;;;;;13.48;8.68;;;22.70;93.40;;;;;;5070114;28;20017;-51
2021/11/24 01:02:46;;;;;;;12.93;8.30;;;22.80;93.30;;;;;;5071248;28;20024;-53
2021/11/24 01:05:17;;;;;;;13.65;8.18;;;22.80;93.00;;;;;;5064502;28;20040;-53
2021/11/24 01:07:45;;;;;;;12.10;7.88;;;22.80;93.00;;;;;;5070485;28;20112;-53
2021/11/24 01:10:13;;;;;;;11.90;8.68;;;22.90;93.10;;;;;;5073082;28;20032;-56
2021/11/24 01:12:43;;;;;;;14.73;9.00;;;23.00;93.00;;;;;;5071274;28;20121;-55
2021/11/24 01:15:12;;;;;;;11.68;9.15;;;23.00;92.90;;;;;;5071096;28;20028;-59
2021/11/24 01:17:39;;;;;;;19.83;8.27;;;23.00;92.90;;;;;;5072546;28;20487;-54
2021/11/24 01:20:07;;;;;;;16.67;9.38;;;23.00;92.60;;;;;;5068351;28;20470;-51
2021/11/24 01:22:35;;;;;;;14.00;8.52;;;23.20;92.70;;;;;;5072458;28;20036;-53
2021/11/24 01:25:03;;;;;;;11.23;8.90;;;23.20;92.60;;;;;;5071491;28;20422;-51
2021/11/24 01:27:31;;;;;;;16.25;9.23;;;23.20;92.50;;;;;;5072452;28;20052;-55
2021/11/24 01:29:58;;;;;;;12.30;9.52;;;23.20;92.80;;;;;;5071868;28;20039;-56
2021/11/24 01:32:26;;;;;;;16.42;8.88;;;23.30;92.50;;;;;;5072319;28;20063;-56
2021/11/24 01:34:53;;;;;;;13.45;8.52;;;23.40;92.60;;;;;;5071720;28;20024;-59
2021/11/24 01:37:21;;;;;;;17.05;9.20;;;23.50;92.30;;;;;;5072218;28;20017;-53
2021/11/24 01:39:48;;;;;;;17.05;8.43;;;23.50;92.20;;;;;;5072146;28;20070;-55
2021/11/24 01:42:17;;;;;;;13.52;8.48;;;23.60;91.70;;;;;;5071910;28;20107;-57
2021/11/24 01:44:44;;;;;;;14.77;8.00;;;23.50;91.80;;;;;;5067192;28;20032;-56
2021/11/24 01:47:12;;;;;;;10.65;7.80;;;23.70;91.90;;;;;;5071872;28;20073;-55
2021/11/24 01:49:39;;;;;;;12.80;8.02;;;23.70;91.80;;;;;;5069886;28;20037;-56
2021/11/24 01:52:07;;;;;;;14.52;8.43;;;23.70;91.60;;;;;;5070577;28;20483;-53
2021/11/24 01:54:35;;;;;;;12.07;8.43;;;23.70;91.10;;;;;;5067733;28;20250;-56
2021/11/24 01:57:04;;;;;;;14.77;8.45;;;23.70;91.60;;;;;;5070411;28;20017;-54
2021/11/24 01:59:31;;;;;;;13.38;9.50;;;23.80;91.30;;;;;;5069791;28;20073;-53
2021/11/24 02:01:59;;;;;;;12.82;8.70;;;23.90;91.40;;;;;;5069985;28;20032;-56
2021/11/24 02:04:26;;;;;;;17.95;10.70;;;23.80;90.90;;;;;;5066606;28;20036;-52
2021/11/24 02:06:54;;;;;;;15.75;8.95;;;23.80;91.10;;;;;;5069449;28;20062;-56
2021/11/24 02:09:22;;;;;;;16.23;9.95;;;23.80;91.50;;;;;;5070018;28;20029;-51
2021/11/24 02:11:50;;;;;;;13.35;8.93;;;23.90;91.00;;;;;;5067351;28;20099;-59
2021/11/24 02:14:18;;;;;;;11.30;9.07;;;23.90;91.30;;;;;;5068339;28;20174;-48
2021/11/24 02:16:52;;;;;;;11.75;9.05;;;24.00;91.40;;;;;;5073036;28;20455;-49
2021/11/24 02:19:22;;;;;;;12.55;9.70;;;23.90;91.30;;;;;;5070019;28;20396;-57
2021/11/24 02:21:54;;;;;;;13.65;8.82;;;24.00;90.90;;;;;;5071419;28;20024;-58
2021/11/24 02:24:24;;;;;;;11.35;8.82;;;23.90;91.40;;;;;;5070275;28;20134;-58
2021/11/24 02:26:51;;;;;;;13.52;9.13;;;23.90;91.60;;;;;;5070479;28;20025;-53
2021/11/24 02:29:23;;;;;;;14.57;8.85;;;23.80;91.40;;;;;;5074058;28;20487;-54
2021/11/24 02:31:54;;;;;;;13.05;8.15;;;23.90;91.70;;;;;;5072588;28;20814;-50
2021/11/24 02:34:26;;;;;;;13.40;7.53;;;24.00;91.60;;;;;;5052703;28;20024;-51
2021/11/24 02:36:56;;;;;;;;;;;24.10;91.30;;;;;;5072454;28;20020;-49
2021/11/24 02:39:30;;;;;;;13.13;8.35;;;24.10;91.20;;;;;;5075902;28;20322;-60
2021/11/24 02:41:58;;;;;;;14.07;8.27;;;24.10;91.00;;;;;;5076038;28;20058;-57
2021/11/24 02:44:33;;;;;;;12.20;7.53;;;24.10;91.30;;;;;;5065169;28;20060;-54
2021/11/24 02:47:16;;;;;;;9.85;7.50;;;24.20;91.10;;;;;;5072397;28;20040;-55
2021/11/24 02:49:43;;;;;;;;;;;24.20;91.00;;;;;;5076025;28;20036;-52
2021/11/24 02:52:12;;;;;;;9.48;7.38;;;24.20;91.00;;;;;;5075730;28;19904;-60
2021/11/24 02:54:41;;;;;;;11.75;7.70;;;24.20;90.80;;;;;;5075734;28;20024;-54
2021/11/24 02:57:09;;;;;;;12.68;7.65;;;24.10;91.20;;;;;;5074641;28;20047;-58
2021/11/24 02:59:37;;;;;;;15.52;9.02;;;24.10;91.00;;;;;;5075669;28;20044;-58
2021/11/24 03:02:05;;;;;;;17.33;8.52;;;24.10;91.10;;;;;;5075501;28;20028;-55
2021/11/24 03:04:33;;;;;;;12.63;8.00;;;24.20;91.00;;;;;;5075861;28;20029;-51
2021/11/24 03:07:03;;;;;;;13.90;8.30;;;24.10;90.70;;;;;;5075834;28;20084;-58
2021/11/24 03:09:30;;;;;;;10.20;7.60;;;24.20;91.00;;;;;;5075598;28;20024;-58
2021/11/24 03:11:58;;;;;;;13.20;7.97;;;24.20;90.70;;;;;;5075476;28;20429;-60
2021/11/24 03:14:25;;;;;;;10.98;7.95;;;24.10;90.80;;;;;;5073252;28;20064;-61
2021/11/24 03:16:55;;;;;;;10.82;7.18;;;24.10;91.30;;;;;;5075081;28;20093;-55
2021/11/24 03:19:22;;;;;;;11.27;7.00;;;24.20;90.90;;;;;;5075730;28;20060;-61
2021/11/24 03:21:50;;;;;;;10.15;6.45;;;24.20;91.00;;;;;;5075541;28;20036;-58
2021/11/24 03:24:17;;;;;;;9.65;6.90;;;24.30;90.80;;;;;;5074215;28;20035;-55
2021/11/24 03:26:45;;;;;;;10.50;7.25;;;24.30;90.80;;;;;;5074822;28;20028;-55
2021/11/24 03:29:13;;;;;;;9.98;6.55;;;24.30;90.80;;;;;;5074962;28;20442;-59
2021/11/24 03:31:40;;;;;;;10.07;6.93;;;24.30;90.80;;;;;;5065354;28;20021;-57
2021/11/24 03:34:09;;;;;;;13.63;7.00;;;24.50;90.80;;;;;;5071470;28;20032;-59
2021/11/24 03:36:38;;;;;;;10.57;6.35;;;24.60;90.60;;;;;;5071872;28;20028;-58
2021/11/24 03:39:06;;;;;;;12.50;5.85;;;24.60;90.60;;;;;;5072653;28;20056;-59
2021/11/24 03:41:34;;;;;;;11.52;6.22;;;24.60;90.80;;;;;;5070878;28;20365;-60
2021/11/24 03:44:01;;;;;;;14.80;4.55;;;24.70;90.80;;;;;;5071360;28;20068;-60
2021/11/24 03:46:29;;;;;;;14.07;5.55;;;24.70;91.00;;;;;;5072485;28;20387;-63
2021/11/24 03:48:57;;;;;;;18.23;5.85;;;24.70;91.00;;;;;;5071979;28;20028;-60
2021/11/24 03:51:24;;;;;;;15.25;6.35;;;24.80;90.70;;;;;;5065521;28;20070;-54
2021/11/24 03:53:52;;;;;;;12.65;4.90;;;24.70;90.60;;;;;;5070434;28;20048;-58
2021/11/24 03:56:19;;;;;;;11.63;5.10;;;24.60;90.90;;;;;;5071904;28;21612;-57
2021/11/24 03:58:46;;;;;;;9.98;5.15;;;24.50;91.10;;;;;;5072047;28;20038;-51
2021/11/24 04:01:14;;;;;;;11.32;4.88;;;24.30;91.40;;;;;;5067695;28;21541;-52
2021/11/24 04:03:42;;;;;;;10.75;5.85;;;24.40;91.20;;;;;;5072212;28;20079;-51
2021/11/24 04:06:09;;;;;;;9.45;5.10;;;24.40;91.30;;;;;;5071579;28;20033;-56
2021/11/24 04:08:36;;;;;;;12.75;5.63;;;24.30;91.50;;;;;;5071869;28;20036;-53
2021/11/24 04:11:04;;;;;;;12.43;4.72;;;24.20;91.40;;;;;;5067702;28;20028;-52
2021/11/24 04:13:32;;;;;;;9.80;5.15;;;24.30;91.60;;;;;;5070283;28;20017;-62
2021/11/24 04:15:59;;;;;;;15.68;5.50;;;24.30;91.30;;;;;;5071446;28;20046;-53
2021/11/24 04:18:26;;;;;;;11.73;4.63;;;24.30;91.40;;;;;;5070398;28;20024;-53
2021/11/24 04:20:56;;;;;;;9.52;5.10;;;24.40;91.30;;;;;;5067438;28;20025;-55
2021/11/24 04:23:24;;;;;;;13.95;5.10;;;24.30;91.10;;;;;;5069930;28;20090;-55
2021/11/24 04:25:51;;;;;;;11.40;5.38;;;24.40;91.40;;;;;;5070840;28;20112;-56
2021/11/24 04:28:19;;;;;;;9.68;4.78;;;24.30;91.30;;;;;;5067117;28;20032;-56
2021/11/24 04:30:47;;;;;;;10.25;4.35;;;24.20;91.50;;;;;;5070472;28;20415;-56
2021/11/24 04:33:16;;;;;;;10.68;4.50;;;24.20;91.50;;;;;;5068110;28;20094;-58
2021/11/24 04:35:44;;;;;;;15.00;5.60;;;24.40;91.40;;;;;;5069798;28;20085;-56
2021/11/24 04:38:11;;;;;;;10.52;4.72;;;24.30;91.20;;;;;;5066424;28;20434;-55
2021/11/24 04:40:39;;;;;;;11.68;4.43;;;24.30;91.30;;;;;;5070031;28;20541;-54
2021/11/24 04:43:10;;;;;;;10.43;4.55;;;24.30;91.70;;;;;;5066272;28;20133;-57
2021/11/24 04:45:37;;;;;;;15.57;4.90;;;24.10;91.80;;;;;;5070344;28;20055;-57
2021/11/24 04:48:05;;;;;;;19.23;4.88;;;24.30;92.10;;;;;;5070005;28;20115;-56
2021/11/24 04:50:32;;;;;;;23.10;5.47;;;24.90;91.00;;;;;;5070687;28;20111;-52
2021/11/24 04:53:00;;;;;;;19.77;5.03;;;24.70;91.20;;;;;;5066558;28;20040;-56
2021/11/24 04:55:30;;;;;;;16.30;4.63;;;24.60;91.20;;;;;;5070833;28;20048;-53
2021/11/24 04:57:58;;;;;;;11.98;4.95;;;24.80;90.70;;;;;;5069116;28;20123;-55
2021/11/24 05:00:25;;;;;;;14.68;5.20;;;24.30;91.40;;;;;;5069979;28;20032;-56
2021/11/24 05:02:53;;;;;;;16.55;4.97;;;24.50;91.20;;;;;;5066602;28;20467;-56
2021/11/24 05:05:23;;;;;;;13.38;4.63;;;24.30;91.50;;;;;;5070755;28;20036;-56
2021/11/24 05:07:52;;;;;;;19.05;4.55;;;24.20;91.90;;;;;;5069510;28;20033;-53
2021/11/24 05:10:19;;;;;;;11.48;4.53;;;24.20;91.80;;;;;;5070603;28;20059;-58
2021/11/24 05:12:47;;;;;;;16.30;4.75;;;24.10;91.90;;;;;;5064823;28;20021;-54
2021/11/24 05:15:30;;;;;;;23.38;5.00;;;24.50;92.00;;;;;;5070743;28;20341;-56
2021/11/24 05:18:07;;;;;;;14.80;3.55;;;24.60;91.90;;;;;;5067713;28;20030;-56
2021/11/24 05:20:37;;;;;;;12.88;3.90;;;24.30;91.80;;;;;;5070223;28;20029;-54
2021/11/24 05:23:05;;;;;;;19.02;4.43;;;24.10;92.00;;;;;;5066339;28;20574;-51
2021/11/24 05:25:34;;;;;;;21.38;4.20;;;24.20;92.30;;;;;;5068276;28;20082;-57
2021/11/24 05:28:02;;;;;;;15.93;4.05;;;24.50;92.10;;;;;;5069903;28;20025;-56
2021/11/24 05:30:29;;;;;;;15.73;4.68;;;24.70;91.50;;;;;;5069928;28;20502;-62
2021/11/24 05:32:57;;;;;;;21.48;4.25;;;24.70;91.20;;;;;;5067305;28;20051;-60
2021/11/24 05:35:30;;;;;;;19.85;3.85;;;24.70;91.00;;;;;;5065643;28;20062;-58
2021/11/24 05:38:00;;;;;;;25.55;4.40;;;24.70;91.50;;;;;;5068231;28;20028;-57
2021/11/24 05:40:28;;;;;;;18.60;3.95;;;24.80;91.20;;;;;;5067074;28;20056;-57
2021/11/24 05:42:56;;;;;;;18.15;4.55;;;24.60;91.30;;;;;;5065111;28;20089;-56
2021/11/24 05:45:27;;;;;;;24.13;3.85;;;24.50;91.70;;;;;;5069757;28;20051;-55
2021/11/24 05:47:58;;;;;;;17.60;3.70;;;24.50;92.00;;;;;;5063560;28;20028;-55
2021/11/24 05:50:27;;;;;;;22.10;4.33;;;24.40;91.70;;;;;;5072440;28;20028;-60
2021/11/24 05:52:55;;;;;;;17.90;4.90;;;24.20;92.20;;;;;;5071013;28;20098;-57
2021/11/24 05:55:26;;;;;;;15.27;4.05;;;24.20;92.10;;;;;;5072351;28;20025;-60
2021/11/24 05:57:54;;;;;;;20.60;4.43;;;24.30;92.10;;;;;;5072019;28;20020;-59
2021/11/24 06:00:21;;;;;;;13.50;3.22;;;24.30;92.10;;;;;;5072562;28;20430;-59
2021/11/24 06:02:49;;;;;;;23.50;4.45;;;24.20;92.10;;;;;;5071559;28;20493;-63
2021/11/24 06:05:16;;;;;;;18.70;5.18;;;24.10;92.60;;;;;;5070162;28;20032;-59
2021/11/24 06:07:45;;;;;;;24.58;5.22;;;24.20;92.60;;;;;;5071081;28;20017;-59
2021/11/24 06:10:14;;;;;;;17.80;3.90;;;24.10;92.60;;;;;;5071330;28;20029;-63
2021/11/24 06:12:41;;;;;;;23.88;4.45;;;24.10;92.70;;;;;;5070521;28;20063;-61
2021/11/24 06:15:14;;;;;;;21.92;4.18;;;24.10;92.60;;;;;;5071917;28;20030;-59
2021/11/24 06:17:42;;;;;;;19.48;4.20;;;24.10;92.70;;;;;;5072383;28;20113;-63
2021/11/24 06:20:11;;;;;;;22.92;4.75;;;24.10;92.90;;;;;;5071682;28;20510;-63
2021/11/24 06:22:40;;;;;;;26.48;3.83;;;24.00;92.80;;;;;;5071822;28;20024;-64
2021/11/24 06:25:09;;;;;;;18.42;4.38;;;24.00;92.90;;;;;;5072019;28;20040;-59
2021/11/24 06:27:37;;;;;;;18.50;4.95;;;23.90;93.00;;;;;;5071355;28;20444;-59
2021/11/24 06:30:06;;;;;;;21.40;5.85;;;23.90;93.10;;;;;;5071829;28;20029;-59
2021/11/24 06:32:33;;;;;;;22.15;4.43;;;23.90;93.10;;;;;;5071154;28;20017;-61
2021/11/24 06:35:01;;;;;;;26.20;5.68;;;24.00;93.30;;;;;;5072208;28;20027;-61
2021/11/24 06:37:28;;;;;;;24.85;5.20;;;24.00;93.60;;;;;;5071833;28;20032;-58
2021/11/24 06:39:56;;;;;;;19.02;4.28;;;24.10;93.40;;;;;;5071714;28;20057;-63
2021/11/24 06:42:23;;;;;;;21.45;4.93;;;24.10;93.20;;;;;;5070353;28;20021;-60
2021/11/24 06:44:51;;;;;;;21.52;5.57;;;24.10;93.40;;;;;;5072175;28;20036;-62
2021/11/24 06:47:18;;;;;;;17.30;5.15;;;24.10;93.20;;;;;;5071799;28;20040;-62
2021/11/24 06:49:46;;;;;;;19.05;4.43;;;24.10;93.20;;;;;;5072024;28;20048;-59
2021/11/24 06:52:13;;;;;;;22.88;4.70;;;24.10;93.20;;;;;;5071058;28;20055;-63
2021/11/24 06:54:41;;;;;;;19.30;5.07;;;24.10;93.20;;;;;;5071360;28;20044;-59
2021/11/24 06:57:09;;;;;;;27.52;4.28;;;24.00;93.10;;;;;;5071288;28;20059;-62
2021/11/24 06:59:36;;;;;;;18.55;4.68;;;24.00;93.40;;;;;;5072967;28;20382;-66
2021/11/24 07:02:04;;;;;;;32.95;4.60;;;24.00;93.30;;;;;;5065162;28;20025;-60
2021/11/24 07:04:32;;;;;;;36.03;8.65;;;24.00;93.40;;;;;;5072142;28;20075;-59
2021/11/24 07:06:59;;;;;;;19.50;4.40;;;23.90;93.40;;;;;;5071664;28;20104;-53
2021/11/24 07:09:27;;;;;;;22.85;4.97;;;23.50;93.90;;;;;;5072457;28;20086;-57
2021/11/24 07:11:55;;;;;;;22.95;5.55;;;23.40;94.20;;;;;;5070080;28;20097;-56
2021/11/24 07:14:22;;;;;;;18.45;5.35;;;23.40;94.10;;;;;;5072479;28;20155;-56
2021/11/24 07:16:50;;;;;;;23.98;10.68;;;23.30;94.60;;;;;;5070720;28;20052;-58
2021/11/24 07:19:21;;;;;;;24.52;8.25;;;23.40;95.00;;;;;;5070948;28;20020;-55
2021/11/24 07:21:49;;;;;;;33.95;14.02;;;23.30;94.80;;;;;;5072918;28;20033;-51
2021/11/24 07:24:18;;;;;;;22.45;11.70;;;23.20;95.00;;;;;;5072605;28;20036;-55
2021/11/24 07:26:46;;;;;;;36.10;10.10;;;23.20;95.10;;;;;;5069178;28;20111;-58
2021/11/24 07:29:14;;;;;;;26.27;5.13;;;22.90;95.50;;;;;;5072452;28;20028;-53
2021/11/24 07:31:42;;;;;;;28.60;14.45;;;22.90;95.70;;;;;;5072223;28;20031;-54
2021/11/24 07:34:09;;;;;;;21.73;5.82;;;23.00;95.80;;;;;;5072171;28;20380;-54
2021/11/24 07:36:36;;;;;;;27.13;9.75;;;23.00;95.30;;;;;;5068620;28;20021;-53
2021/11/24 07:39:04;;;;;;;27.58;10.00;;;23.00;95.90;;;;;;5068850;28;20025;-51
2021/11/24 07:41:31;;;;;;;36.83;20.35;;;23.00;95.90;;;;;;5070230;28;20024;-50
2021/11/24 07:43:59;;;;;;;27.45;8.98;;;22.90;96.00;;;;;;5071089;28;20039;-53
2021/11/24 07:46:26;;;;;;;29.55;14.48;;;22.60;96.20;;;;;;5069042;28;20029;-56
2021/11/24 07:48:54;;;;;;;23.10;8.63;;;22.70;96.40;;;;;;5072703;28;20544;-58
2021/11/24 07:51:21;;;;;;;25.15;9.70;;;22.90;96.00;;;;;;5072210;28;20029;-58
2021/11/24 07:53:49;;;;;;;23.35;8.65;;;23.00;96.10;;;;;;5069395;28;20044;-47
2021/11/24 07:56:16;;;;;;;24.23;6.82;;;23.00;95.80;;;;;;5050455;28;20040;-49
2021/11/24 07:58:44;;;;;;;31.70;7.10;;;23.00;95.60;;;;;;5071308;28;20028;-54
2021/11/24 08:01:12;;;;;;;25.65;6.20;;;23.00;95.70;;;;;;5070943;28;20024;-56
2021/11/24 08:03:41;;;;;;;33.63;7.60;;;23.00;95.70;;;;;;5067968;28;20032;-59
2021/11/24 08:06:08;;;;;;;27.58;7.82;;;22.90;95.70;;;;;;5066951;28;20040;-59
2021/11/24 08:08:36;;;;;;;26.63;6.25;;;22.80;95.90;;;;;;5071291;28;20052;-62
2021/11/24 08:11:04;;;;;;;35.30;10.73;;;22.80;96.20;;;;;;5071052;28;20075;-58
2021/11/24 08:13:31;;;;;;;31.55;9.57;;;22.90;96.70;;;;;;5069810;28;20033;-60
2021/11/24 08:15:59;;;;;;;28.83;7.38;;;22.90;96.70;;;;;;5068154;28;20422;-59
2021/11/24 08:18:27;;;;;;;37.05;8.40;;;22.90;96.80;;;;;;5070783;28;20028;-58
2021/11/24 08:20:54;;;;;;;28.52;9.07;;;23.00;96.60;;;;;;5071788;28;20024;-65
2021/11/24 08:23:22;;;;;;;33.15;10.13;;;23.00;97.00;;;;;;5071471;28;20044;-62
2021/11/24 08:25:52;;;;;;;28.90;6.90;;;23.10;97.60;;;;;;5069268;28;20079;-61
2021/11/24 08:28:19;;;;;;;25.42;8.43;;;23.10;96.70;;;;;;5069867;28;20024;-61
2021/11/24 08:30:47;;;;;;;26.75;8.25;;;23.10;97.70;;;;;;5071226;28;20064;-59
2021/11/24 08:33:14;;;;;;;29.55;7.47;;;23.10;97.60;;;;;;5070873;28;20506;-60
2021/11/24 08:35:42;;;;;;;31.50;7.35;;;23.10;97.10;;;;;;5070536;28;20454;-60
2021/11/24 08:38:10;;;;;;;25.80;7.10;;;22.90;97.70;;;;;;5067915;28;20130;-57
2021/11/24 08:40:37;;;;;;;39.25;8.68;;;22.90;98.30;;;;;;5071189;28;20617;-57
2021/11/24 08:43:04;;;;;;;36.42;11.07;;;22.80;97.70;;;;;;5069899;28;20028;-60
2021/11/24 08:45:33;;;;;;;25.95;8.43;;;22.90;97.50;;;;;;5071014;28;20064;-59
2021/11/24 08:48:03;;;;;;;34.10;9.52;;;22.80;99.00;;;;;;5065140;28;20027;-60
2021/11/24 08:50:31;;;;;;;31.60;7.93;;;22.90;98.10;;;;;;5036518;28;20028;-60
2021/11/24 08:52:59;;;;;;;37.20;9.48;;;22.60;97.80;;;;;;5066568;28;20236;-60
2021/11/24 08:55:26;;;;;;;33.08;9.15;;;22.60;98.40;;;;;;5068710;28;20107;-64
2021/11/24 08:57:59;;;;;;;26.65;8.15;;;22.70;98.80;;;;;;5065497;28;20021;-59
2021/11/24 09:00:26;;;;;;;30.83;8.77;;;22.70;97.80;;;;;;5068411;28;20677;-60
2021/11/24 09:02:54;;;;;;;30.95;7.50;;;22.70;98.30;;;;;;5067193;28;20110;-64
2021/11/24 09:05:22;;;;;;;29.27;7.95;;;22.80;98.40;;;;;;5071950;28;20387;-63
2021/11/24 09:07:50;;;;;;;31.88;8.40;;;22.80;99.00;;;;;;5071970;28;20025;-64
2021/11/24 09:10:19;;;;;;;32.80;7.45;;;23.00;99.60;;;;;;5072672;28;20028;-58
2021/11/24 09:12:47;;;;;;;35.53;9.02;;;22.90;98.30;;;;;;5071810;28;20025;-63
2021/11/24 09:15:15;;;;;;;35.80;9.15;;;22.80;98.10;;;;;;5072439;28;20064;-62
2021/11/24 09:17:42;;;;;;;29.52;7.63;;;22.90;98.50;;;;;;5072650;28;20020;-63
2021/11/24 09:20:10;;;;;;;37.28;8.43;;;22.70;98.30;;;;;;5070965;28;20024;-61
2021/11/24 09:22:42;;;;;;;29.98;9.00;;;22.60;98.40;;;;;;5070242;28;20021;-61
2021/11/24 09:25:13;;;;;;;33.38;7.30;;;22.60;99.00;;;;;;5070735;28;20036;-54
2021/11/24 09:27:58;;;;;;;24.13;6.27;;;22.60;98.60;;;;;;5070836;28;20075;-60
2021/11/24 09:30:27;;;;;;;26.50;6.90;;;22.70;98.50;;;;;;5071204;28;20020;-53
2021/11/24 09:32:55;;;;;;;17.15;6.25;;;22.70;98.40;;;;;;5071072;28;20032;-60
2021/11/24 09:35:23;;;;;;;29.65;7.57;;;22.70;98.30;;;;;;5071703;28;20483;-59
2021/11/24 09:37:52;;;;;;;19.05;6.47;;;22.70;98.20;;;;;;5072668;28;20063;-58
2021/11/24 09:40:19;;;;;;;19.35;6.00;;;22.70;98.10;;;;;;5072950;28;20092;-60
2021/11/24 09:42:49;;;;;;;28.55;7.68;;;22.70;98.20;;;;;;5063440;28;20040;-57
2021/11/24 09:45:18;;;;;;;27.67;10.07;;;22.70;98.40;;;;;;5065903;28;20033;-57
2021/11/24 09:47:47;;;;;;;37.00;17.30;;;22.70;98.40;;;;;;5067390;28;20017;-54
2021/11/24 09:50:22;;;;;;;102.18;57.05;;;22.70;98.20;;;;;;5068672;28;20040;-56
2021/11/24 09:52:51;;;;;;;185.25;112.82;;;22.70;98.10;;;;;;5068344;28;20028;-53
2021/11/24 09:55:22;;;;;;;201.35;124.97;;;22.70;98.00;;;;;;5065917;28;20115;-53
2021/11/24 09:57:54;;;;;;;236.15;146.45;;;22.70;97.90;;;;;;5069352;28;20032;-50
2021/11/24 10:00:25;;;;;;;205.02;129.57;;;22.70;97.90;;;;;;5068890;28;20499;-58
2021/11/24 10:02:56;;;;;;;208.75;131.57;;;22.70;97.90;;;;;;5069898;28;20498;-53
2021/11/24 10:05:25;;;;;;;219.30;136.57;;;22.70;97.80;;;;;;5066413;28;20040;-53
2021/11/24 10:07:53;;;;;;;199.90;129.10;;;22.70;97.80;;;;;;5069873;28;20032;-59
2021/11/24 10:10:22;;;;;;;198.77;126.45;;;22.70;97.80;;;;;;5069795;28;20032;-54
2021/11/24 10:12:49;;;;;;;201.50;128.20;;;22.70;97.80;;;;;;5068917;28;20375;-57
2021/11/24 10:15:52;;;;;;;195.98;125.30;;;22.60;97.70;;;;;;5066486;28;20040;-54
2021/11/24 10:18:27;;;;;;;205.48;128.25;;;22.60;97.70;;;;;;5026902;28;20033;-50
2021/11/24 10:20:56;;;;;;;181.27;121.57;;;22.60;97.70;;;;;;5063656;28;20040;-47
2021/11/24 10:23:32;;;;;;;197.98;128.43;;;22.60;97.70;;;;;;5069689;28;20033;-53
2021/11/24 10:26:35;;;;;;;192.68;119.78;;;22.60;97.70;;;;;;5064038;28;20043;-51
2021/11/24 10:29:17;;;;;;;179.80;112.55;;;22.60;97.60;;;;;;5068435;28;20502;-55
2021/11/24 10:31:59;;;;;;;192.48;118.30;;;22.50;97.60;;;;;;5067764;28;20025;-57
2021/11/24 10:34:32;;;;;;;179.13;114.27;;;22.60;97.60;;;;;;5070193;28;20025;-56
2021/11/24 10:37:08;;;;;;;168.05;110.40;;;22.50;97.50;;;;;;5069732;28;20017;-52
2021/11/24 10:39:53;;;;;;;162.65;106.03;;;22.50;97.60;;;;;;5073245;28;20033;-55
2021/11/24 10:42:32;;;;;;;161.65;101.55;;;22.50;97.60;;;;;;5073419;28;20363;-50
2021/11/24 10:45:16;;;;;;;153.35;96.28;;;22.50;97.50;;;;;;5070246;28;20060;-55
2021/11/24 10:48:16;;;;;;;140.23;93.10;;;22.50;97.60;;;;;;5071468;28;20093;-56
2021/11/24 10:50:43;;;;;;;144.30;91.78;;;22.40;97.50;;;;;;5068996;28;20800;-56
2021/11/24 10:53:21;;;;;;;133.75;84.22;;;22.50;97.60;;;;;;5073064;28;20056;-58
2021/11/24 10:55:48;;;;;;;136.07;86.45;;;22.40;97.50;;;;;;5069300;28;20091;-57
2021/11/24 10:58:24;;;;;;;128.35;82.35;;;22.50;97.80;;;;;;5073136;28;20029;-53
2021/11/24 11:00:54;;;;;;;130.50;84.38;;;22.50;97.50;;;;;;5072958;28;20095;-56
2021/11/24 11:03:36;;;;;;;135.77;84.88;;;22.40;97.60;;;;;;5072633;28;20082;-55
2021/11/24 11:06:04;;;;;;;127.32;78.50;;;22.40;97.50;;;;;;5072338;28;20036;-56
2021/11/24 11:08:32;;;;;;;120.38;72.45;;;22.40;97.50;;;;;;5074320;28;20082;-56
2021/11/24 11:11:05;;;;;;;125.63;78.18;;;22.40;97.50;;;;;;5075860;28;20021;-58
2021/11/24 11:13:33;;;;;;;111.53;71.20;;;22.40;97.50;;;;;;5075460;28;20031;-55
2021/11/24 11:16:00;;;;;;;114.70;70.13;;;22.40;97.50;;;;;;5072429;28;20399;-51
2021/11/24 11:18:32;;;;;;;108.00;67.75;;;22.40;97.40;;;;;;5068382;28;20113;-53
2021/11/24 11:21:11;;;;;;;106.85;63.75;;;22.40;97.40;;;;;;5073436;28;20020;-49
2021/11/24 11:23:42;;;;;;;108.45;63.28;;;22.40;97.40;;;;;;5072033;28;20036;-49
2021/11/24 11:26:12;;;;;;;96.10;61.72;;;22.40;97.40;;;;;;5071645;28;20029;-56
2021/11/24 11:28:50;;;;;;;92.50;55.80;;;22.30;97.40;;;;;;5073262;28;20418;-55
2021/11/24 11:31:20;;;;;;;92.20;55.00;;;22.30;97.50;;;;;;5072814;28;20447;-52
2021/11/24 11:33:56;;;;;;;95.38;59.38;;;22.30;97.50;;;;;;5073361;28;20035;-59
2021/11/24 11:36:24;;;;;;;97.28;56.25;;;22.30;97.80;;;;;;5070191;28;20025;-53
2021/11/24 11:38:56;;;;;;;86.43;54.85;;;22.30;97.50;;;;;;5072935;28;20028;-54
2021/11/24 11:41:31;;;;;;;87.90;51.80;;;22.30;97.40;;;;;;5073073;28;20388;-54
2021/11/24 11:44:00;;;;;;;80.13;52.33;;;22.30;97.40;;;;;;5069898;28;20715;-60
2021/11/24 11:46:33;;;;;;;79.88;50.50;;;22.30;97.50;;;;;;5069901;28;20036;-46
2021/11/24 11:49:20;;;;;;;87.97;51.58;;;22.30;97.50;;;;;;5072694;28;20038;-48
2021/11/24 11:51:49;;;;;;;85.35;49.70;;;22.20;97.40;;;;;;5067926;28;20051;-50
2021/11/24 11:54:30;;;;;;;77.88;48.05;;;22.20;97.40;;;;;;5068292;28;20150;-47
2021/11/24 11:57:01;;;;;;;79.70;45.50;;;22.20;97.40;;;;;;5067736;28;20167;-54
2021/11/24 11:59:37;;;;;;;76.97;45.35;;;22.20;97.40;;;;;;5072506;28;20499;-49
2021/11/24 12:02:07;;;;;;;69.43;44.85;;;22.20;97.30;;;;;;5070804;28;20383;-49
2021/11/24 12:04:50;;;;;;;70.20;42.15;;;22.20;97.30;;;;;;5069236;28;20037;-49
2021/11/24 12:07:23;;;;;;;68.35;42.67;;;22.20;97.30;;;;;;5068983;28;20020;-51
2021/11/24 12:09:57;;;;;;;67.68;42.92;;;22.20;97.30;;;;;;5071611;28;20032;-47
2021/11/24 12:12:35;;;;;;;66.47;42.83;;;22.20;97.30;;;;;;5068702;28;20051;-46
2021/11/24 12:15:16;;;;;;;67.78;40.45;;;22.20;97.30;;;;;;5070141;28;20025;-47
2021/11/24 12:18:00;;;;;;;59.72;36.50;;;22.20;97.30;;;;;;5067660;28;20056;-60
2021/11/24 12:20:33;;;;;;;63.13;39.38;;;22.20;97.30;;;;;;5069627;28;20085;-52
2021/11/24 12:23:01;;;;;;;72.25;41.28;;;22.10;97.30;;;;;;5071945;28;20060;-57
2021/11/24 12:25:29;;;;;;;62.45;40.28;;;22.20;97.40;;;;;;5071506;28;20044;-56
2021/11/24 12:28:05;;;;;;;64.38;38.50;;;22.10;97.30;;;;;;5068376;28;20030;-53
2021/11/24 12:30:36;;;;;;;62.67;38.15;;;22.10;97.30;;;;;;5068982;28;20035;-57
2021/11/24 12:33:09;;;;;;;61.85;37.75;;;22.10;97.30;;;;;;5074289;28;20101;-59
2021/11/24 12:35:51;;;;;;;67.97;40.97;;;22.10;97.30;;;;;;5074126;28;20483;-59
2021/11/24 12:38:21;;;;;;;58.55;36.25;;;22.10;97.30;;;;;;5074256;28;20020;-60
2021/11/24 12:40:50;;;;;;;57.80;35.63;;;22.10;97.30;;;;;;5073837;28;20086;-61
2021/11/24 12:43:20;;;;;;;51.58;33.28;;;22.10;97.30;;;;;;5073865;28;20031;-61
2021/11/24 12:46:16;;;;;;;52.67;31.92;;;22.00;97.30;;;;;;5066249;28;20040;-56